Time;durP1;ratioP1;P1;durP2;ratioP2;P2;SDS_P1;SDS_P2;PMS_P1;PMS_P2;Temp;Humidity;BMP_temperature;BMP_pressure;BME280_temperature;BME280_humidity;BME280_pressure;Samples;Min_cycle;Max_cycle;Signal;HPM_P1;HPM_P2
2023/06/28 00:00:03;;;;;;;;;;;;;;;15.65;46.65;100339.59;5054390;28;866;-50
2023/06/28 00:02:42;;;;;;;;;;;;;;;15.67;46.69;100348.38;5055198;28;1136;-51
2023/06/28 00:05:08;;;;;;;;;;;;;;;15.52;46.83;100340.19;5042118;28;1055;-52
2023/06/28 00:07:34;;;;;;;;;;;;;;;15.49;46.95;100340.75;5055369;28;1120;-51
2023/06/28 00:09:59;;;;;;;;;;;;;;;15.55;46.85;100334.16;5041080;28;980;-50
2023/06/28 00:12:26;;;;;;;;;;;;;;;15.52;46.84;100338.25;5055319;28;1918;-54
2023/06/28 00:14:55;;;;;;;;;;;;;;;15.46;47.17;100338.53;5055168;28;1092;-55
2023/06/28 00:17:27;;;;;;;;;;;;;;;15.52;47.04;100340.19;5055294;28;1045;-51
2023/06/28 00:19:56;;;;;;;;;;;;;;;15.54;46.76;100343.47;5054653;28;962;-52
2023/06/28 00:22:29;;;;;;;;;;;;;;;16.54;47.83;100346.41;5055183;28;1003;-53
2023/06/28 00:24:57;;;;;;;;;;;;;;;15.94;48.78;100341.75;5035217;28;1055;-55
2023/06/28 00:27:23;;;;;;;;;;;;;;;15.87;48.27;100339.28;5051273;28;1032;-53
2023/06/28 00:29:48;;;;;;;;;;;;;;;15.81;47.95;100342.31;5046027;28;1124;-54
2023/06/28 00:32:14;;;;;;;;;;;;;;;15.79;47.48;100350.00;5058994;28;1902;-53
2023/06/28 00:34:39;;;;;;;;;;;;;;;15.70;47.29;100344.25;5058848;28;1048;-53
2023/06/28 00:37:05;;;;;;;;;;;;;;;15.68;47.05;100350.03;5059054;28;1107;-54
2023/06/28 00:39:31;;;;;;;;;;;;;;;15.70;47.10;100336.84;5033531;28;1123;-53
2023/06/28 00:41:57;;;;;;;;;;;;;;;15.66;47.03;100343.19;5034417;28;1196;-54
2023/06/28 00:44:22;;;;;;;;;;;;;;;15.69;47.05;100339.88;5040996;28;1249;-52
2023/06/28 00:46:48;;;;;;;;;;;;;;;15.58;47.06;100330.84;5039843;28;1975;-55
2023/06/28 00:49:14;;;;;;;;;;;;;;;15.72;46.81;100329.19;5040410;28;1979;-54
2023/06/28 00:51:40;;;;;;;;;;;;;;;15.59;46.64;100328.94;5040472;28;1988;-53
2023/06/28 00:54:06;;;;;;;;;;;;;;;15.65;46.75;100336.84;5045094;28;1056;-53
2023/06/28 00:56:31;;;;;;;;;;;;;;;15.59;46.64;100329.75;5040707;28;1596;-51
2023/06/28 00:58:57;;;;;;;;;;;;;;;15.56;46.71;100327.56;5058123;28;1060;-51
2023/06/28 01:01:23;;;;;;;;;;;;;;;15.57;46.66;100326.44;5057566;28;1052;-52
2023/06/28 01:03:50;;;;;;;;;;;;;;;15.54;46.78;100316.91;5058179;28;1175;-52
2023/06/28 01:06:15;;;;;;;;;;;;;;;15.51;46.89;100316.63;5057717;28;1056;-53
2023/06/28 01:08:41;;;;;;;;;;;;;;;15.59;46.63;100324.28;5045228;28;1001;-54
2023/06/28 01:11:07;;;;;;;;;;;;;;;15.47;46.94;100323.75;5057974;28;1906;-54
2023/06/28 01:13:33;;;;;;;;;;;;;;;15.48;47.10;100317.19;5040530;28;1184;-54
2023/06/28 01:15:58;;;;;;;;;;;;;;;15.50;47.03;100324.03;5039799;28;1084;-55
2023/06/28 01:18:27;;;;;;;;;;;;;;;15.55;46.70;100318.50;5044906;28;1032;-54
2023/06/28 01:20:54;;;;;;;;;;;;;;;15.52;46.68;100321.81;5057833;28;1052;-55
2023/06/28 01:23:21;;;;;;;;;;;;;;;15.57;46.54;100320.97;5057225;28;920;-55
2023/06/28 01:25:47;;;;;;;;;;;;;;;15.53;46.46;100311.69;5040987;28;1045;-54
2023/06/28 01:28:13;;;;;;;;;;;;;;;15.53;46.76;100318.00;5039967;28;1293;-54
2023/06/28 01:30:39;;;;;;;;;;;;;;;15.54;46.65;100321.53;5039795;28;1897;-55
2023/06/28 01:33:05;;;;;;;;;;;;;;;15.51;46.65;100314.69;5039488;28;1116;-54
2023/06/28 01:35:31;;;;;;;;;;;;;;;15.58;46.41;100317.16;5039626;28;1523;-54
2023/06/28 01:37:57;;;;;;;;;;;;;;;15.55;46.50;100314.97;5057047;28;1144;-55
2023/06/28 01:40:22;;;;;;;;;;;;;;;15.49;46.78;100319.63;5057512;28;1156;-54
2023/06/28 01:42:48;;;;;;;;;;;;;;;15.54;46.47;100321.53;5039656;28;1037;-52
2023/06/28 01:45:13;;;;;;;;;;;;;;;15.37;46.95;100319.91;5026243;28;1183;-53
2023/06/28 01:47:39;;;;;;;;;;;;;;;15.46;46.77;100320.19;5057100;28;913;-54
2023/06/28 01:50:05;;;;;;;;;;;;;;;15.65;47.29;100323.16;5056121;28;1018;-52
2023/06/28 01:52:31;;;;;;;;;;;;;;;16.40;48.59;100321.50;5027577;28;1917;-53
2023/06/28 01:54:59;;;;;;;;;;;;;;;15.96;48.65;100319.53;5038931;28;1084;-53
2023/06/28 01:57:24;;;;;;;;;;;;;;;15.86;48.30;100328.59;5057527;28;1044;-52
2023/06/28 01:59:50;;;;;;;;;;;;;;;15.77;48.07;100325.59;5057371;28;1187;-53
2023/06/28 02:02:16;;;;;;;;;;;;;;;15.79;47.66;100325.31;5039517;28;1115;-54
2023/06/28 02:04:41;;;;;;;;;;;;;;;15.77;47.30;100317.38;5037954;28;1563;-52
2023/06/28 02:07:07;;;;;;;;;;;;;;;15.73;47.24;100325.31;5027647;28;1659;-53
2023/06/28 02:09:32;;;;;;;;;;;;;;;15.69;46.94;100323.44;5043665;28;1192;-52
2023/06/28 02:11:58;;;;;;;;;;;;;;;15.63;46.95;100316.34;5049464;28;1930;-53
2023/06/28 02:14:23;;;;;;;;;;;;;;;15.66;46.96;100330.28;5051298;28;1048;-53
2023/06/28 02:16:49;;;;;;;;;;;;;;;15.61;46.79;100321.25;5038859;28;1327;-52
2023/06/28 02:19:16;;;;;;;;;;;;;;;15.62;46.73;100317.41;5056934;28;1075;-51
2023/06/28 02:21:41;;;;;;;;;;;;;;;15.62;46.52;100326.44;5049332;28;1108;-53
2023/06/28 02:24:08;;;;;;;;;;;;;;;15.67;46.38;100320.13;5046457;28;1041;-54
2023/06/28 02:26:35;;;;;;;;;;;;;;;15.55;46.63;100320.44;5056914;28;1155;-54
2023/06/28 02:29:00;;;;;;;;;;;;;;;15.64;46.51;100316.03;5025505;28;1241;-54
2023/06/28 02:31:26;;;;;;;;;;;;;;;15.60;46.53;100308.63;5056499;28;1898;-55
2023/06/28 02:33:52;;;;;;;;;;;;;;;15.53;46.63;100325.41;5055734;28;1130;-55
2023/06/28 02:36:18;;;;;;;;;;;;;;;15.56;46.57;100319.34;5056574;28;827;-54
2023/06/28 02:38:43;;;;;;;;;;;;;;;15.53;46.66;100320.72;5056536;28;1340;-54
2023/06/28 02:41:10;;;;;;;;;;;;;;;15.55;46.78;100323.19;5056816;28;1067;-54
2023/06/28 02:43:36;;;;;;;;;;;;;;;15.45;46.70;100317.75;5025394;28;1267;-53
2023/06/28 02:46:02;;;;;;;;;;;;;;;15.52;46.39;100315.53;5038185;28;1337;-54
2023/06/28 02:48:28;;;;;;;;;;;;;;;15.57;46.33;100324.56;5037919;28;1229;-52
2023/06/28 02:50:53;;;;;;;;;;;;;;;15.43;46.73;100303.47;5030467;28;1980;-52
2023/06/28 02:53:19;;;;;;;;;;;;;;;15.45;46.66;100313.06;5032930;28;1139;-55
2023/06/28 02:55:45;;;;;;;;;;;;;;;15.46;46.71;100316.63;5038450;28;1367;-52
2023/06/28 02:58:12;;;;;;;;;;;;;;;15.48;46.42;100306.22;5025157;28;1094;-53
2023/06/28 03:00:38;;;;;;;;;;;;;;;15.45;46.44;100312.25;5055751;28;1023;-52
2023/06/28 03:03:04;;;;;;;;;;;;;;;15.43;46.59;100315.28;5038159;28;1150;-52
2023/06/28 03:05:30;;;;;;;;;;;;;;;15.46;46.51;100314.72;5038179;28;1146;-54
2023/06/28 03:07:56;;;;;;;;;;;;;;;15.40;46.76;100315.81;5038030;28;1226;-52
2023/06/28 03:10:21;;;;;;;;;;;;;;;15.39;46.61;100315.00;5031454;28;1154;-52
2023/06/28 03:12:47;;;;;;;;;;;;;;;15.46;46.69;100311.13;5031459;28;1983;-52
2023/06/28 03:15:13;;;;;;;;;;;;;;;15.44;46.56;100321.56;5037474;28;1155;-52
2023/06/28 03:17:38;;;;;;;;;;;;;;;15.45;46.58;100310.31;5056339;28;1069;-50
2023/06/28 03:20:08;;;;;;;;;;;;;;;15.43;46.48;100314.44;5038344;28;1160;-56
2023/06/28 03:22:33;;;;;;;;;;;;;;;15.48;46.53;100317.19;5042177;28;1089;-57
2023/06/28 03:24:59;;;;;;;;;;;;;;;15.45;46.55;100312.25;5029825;28;1207;-57
2023/06/28 03:27:26;;;;;;;;;;;;;;;15.51;46.69;100320.16;5019814;28;1277;-56
2023/06/28 03:29:52;;;;;;;;;;;;;;;15.38;46.88;100313.34;5055612;28;1047;-54
2023/06/28 03:32:17;;;;;;;;;;;;;;;15.47;46.48;100315.53;5037763;28;1914;-53
2023/06/28 03:34:43;;;;;;;;;;;;;;;15.38;46.92;100316.09;5056080;28;1086;-53
2023/06/28 03:37:09;;;;;;;;;;;;;;;15.48;46.55;100322.66;5037364;28;1219;-53
2023/06/28 03:39:34;;;;;;;;;;;;;;;15.48;46.56;100320.72;5038569;28;1120;-52
2023/06/28 03:42:00;;;;;;;;;;;;;;;15.44;46.59;100310.59;5055940;28;1059;-54
2023/06/28 03:44:25;;;;;;;;;;;;;;;15.48;46.70;100317.19;5055514;28;1112;-54
2023/06/28 03:46:51;;;;;;;;;;;;;;;15.47;46.85;100315.53;5055474;28;1048;-47
2023/06/28 03:49:19;;;;;;;;;;;;;;;15.35;47.07;100321.31;5055731;28;1028;-52
2023/06/28 03:51:44;;;;;;;;;;;;;;;15.43;47.03;100318.03;5055929;28;1910;-54
2023/06/28 03:54:11;;;;;;;;;;;;;;;15.37;46.81;100314.44;5037678;28;1285;-58
2023/06/28 03:56:36;;;;;;;;;;;;;;;15.27;47.27;100317.19;5050808;28;1107;-59
2023/06/28 03:59:03;;;;;;;;;;;;;;;15.46;46.95;100313.88;5036994;28;1179;-57
2023/06/28 04:01:28;;;;;;;;;;;;;;;15.44;46.80;100316.09;5056118;28;1361;-59
2023/06/28 04:03:54;;;;;;;;;;;;;;;15.46;46.67;100319.34;5059719;28;1163;-58
2023/06/28 04:06:19;;;;;;;;;;;;;;;15.46;46.99;100322.09;5058368;28;1203;-59
2023/06/28 04:08:46;;;;;;;;;;;;;;;15.42;46.92;100319.09;5039334;28;1191;-55
2023/06/28 04:11:12;;;;;;;;;;;;;;;15.42;47.32;100329.22;5054054;28;1898;-54
2023/06/28 04:13:38;;;;;;;;;;;;;;;15.42;46.95;100318.28;5051058;28;942;-56
2023/06/28 04:16:03;;;;;;;;;;;;;;;15.39;47.04;100317.75;5040971;28;1175;-55
2023/06/28 04:18:29;;;;;;;;;;;;;;;15.37;47.15;100314.44;5059320;28;1071;-56
2023/06/28 04:20:55;;;;;;;;;;;;;;;15.50;46.99;100325.94;5059150;28;1119;-56
2023/06/28 04:23:20;;;;;;;;;;;;;;;15.45;46.92;100324.03;5059167;28;1138;-56
2023/06/28 04:25:46;;;;;;;;;;;;;;;15.40;47.16;100313.91;5044984;28;922;-54
2023/06/28 04:28:12;;;;;;;;;;;;;;;15.44;47.09;100329.78;5058670;28;1047;-55
2023/06/28 04:30:38;;;;;;;;;;;;;;;15.44;47.21;100316.09;5057340;28;1981;-56
2023/06/28 04:33:04;;;;;;;;;;;;;;;15.47;47.06;100316.34;5059420;28;1214;-54
2023/06/28 04:35:35;;;;;;;;;;;;;;;15.44;47.44;100310.59;5058591;28;1126;-53
2023/06/28 04:38:04;;;;;;;;;;;;;;;15.48;47.29;100319.91;5053385;28;1179;-55
2023/06/28 04:40:32;;;;;;;;;;;;;;;15.49;47.17;100318.81;5051265;28;1079;-57
2023/06/28 04:42:57;;;;;;;;;;;;;;;15.46;47.30;100333.91;5058970;28;1025;-56
2023/06/28 04:45:25;;;;;;;;;;;;;;;15.51;47.15;100324.84;5059198;28;1143;-56
2023/06/28 04:47:52;;;;;;;;;;;;;;;15.53;47.43;100328.94;5058291;28;1115;-56
2023/06/28 04:50:18;;;;;;;;;;;;;;;15.48;47.25;100336.34;5045288;28;1110;-56
2023/06/28 04:52:43;;;;;;;;;;;;;;;15.48;47.45;100330.88;5051980;28;1910;-56
2023/06/28 04:55:09;;;;;;;;;;;;;;;17.05;45.36;100337.81;5051591;28;1036;-56
2023/06/28 04:57:34;;;;;;;;;;;;;;;16.74;46.25;100343.50;5057367;28;1156;-53
2023/06/28 05:00:00;;;;;;;;;;;;;;;16.67;46.84;100337.53;5057623;28;1011;-58
2023/06/28 05:02:25;;;;;;;;;;;;;;;16.50;47.81;100337.09;5049393;28;877;-58
2023/06/28 05:04:51;;;;;;;;;;;;;;;16.54;48.04;100341.72;5040434;28;1187;-57
2023/06/28 05:07:17;;;;;;;;;;;;;;;16.49;48.56;100335.44;5058440;28;1144;-56
2023/06/28 05:09:42;;;;;;;;;;;;;;;16.44;48.82;100339.06;5058108;28;1078;-55
2023/06/28 05:12:08;;;;;;;;;;;;;;;16.40;49.18;100343.47;5058228;28;1906;-55
2023/06/28 05:14:33;;;;;;;;;;;;;;;16.47;49.15;100338.47;5057195;28;930;-56
2023/06/28 05:16:59;;;;;;;;;;;;;;;16.39;49.42;100336.31;5049978;28;1036;-54
2023/06/28 05:19:24;;;;;;;;;;;;;;;16.33;49.75;100343.78;5053254;28;1060;-57
2023/06/28 05:21:50;;;;;;;;;;;;;;;16.31;49.91;100334.97;5049459;28;1032;-57
2023/06/28 05:24:16;;;;;;;;;;;;;;;16.31;50.08;100339.66;5052983;28;1040;-56
2023/06/28 05:26:41;;;;;;;;;;;;;;;16.30;50.24;100341.59;5049678;28;1151;-57
2023/06/28 05:29:07;;;;;;;;;;;;;;;17.50;47.97;100345.13;5039740;28;1187;-56
2023/06/28 05:31:32;;;;;;;;;;;;;;;17.04;48.91;100338.94;5057947;28;1909;-55
2023/06/28 05:33:58;;;;;;;;;;;;;;;16.91;49.63;100336.84;5057203;28;1252;-57
2023/06/28 05:36:23;;;;;;;;;;;;;;;16.77;50.06;100342.97;5057457;28;1124;-58
2023/06/28 05:38:49;;;;;;;;;;;;;;;16.65;50.38;100347.97;5055158;28;1095;-57
2023/06/28 05:41:15;;;;;;;;;;;;;;;16.60;50.47;100346.06;5045589;28;1048;-57
2023/06/28 05:43:44;;;;;;;;;;;;;;;16.57;51.00;100337.59;5044156;28;1102;-52
2023/06/28 05:46:09;;;;;;;;;;;;;;;16.53;50.86;100336.53;5057618;28;1107;-56
2023/06/28 05:48:35;;;;;;;;;;;;;;;16.50;51.42;100337.91;5057152;28;1249;-56
2023/06/28 05:51:00;;;;;;;;;;;;;;;16.51;51.23;100345.03;5050291;28;1910;-56
2023/06/28 05:53:26;;;;;;;;;;;;;;;16.46;51.37;100336.03;5057282;28;1275;-54
2023/06/28 05:55:51;;;;;;;;;;;;;;;16.47;51.54;100332.19;5056761;28;1226;-57
2023/06/28 05:58:18;;;;;;;;;;;;;;;16.43;51.79;100332.72;5057402;28;1122;-55
2023/06/28 06:00:43;;;;;;;;;;;;;;;16.40;51.99;100327.81;5057106;28;1142;-52
2023/06/28 06:03:09;;;;;;;;;;;;;;;16.47;51.69;100332.19;5043712;28;1052;-55
2023/06/28 06:05:34;;;;;;;;;;;;;;;16.40;51.87;100327.81;5057374;28;1140;-55
2023/06/28 06:08:00;;;;;;;;;;;;;;;16.43;51.80;100319.00;5042805;28;1136;-56
2023/06/28 06:10:26;;;;;;;;;;;;;;;16.44;52.69;100328.06;5057001;28;1146;-55
2023/06/28 06:12:53;;;;;;;;;;;;;;;16.24;53.22;100323.50;5055754;28;1972;-57
2023/06/28 06:15:18;;;;;;;;;;;;;;;16.40;52.79;100324.25;5037274;28;1223;-56
2023/06/28 06:17:44;;;;;;;;;;;;;;;16.40;52.79;100327.00;5036895;28;1135;-54
2023/06/28 06:20:10;;;;;;;;;;;;;;;16.39;52.69;100331.66;5044841;28;1115;-55
2023/06/28 06:22:35;;;;;;;;;;;;;;;16.28;52.84;100330.06;5056595;28;1174;-50
2023/06/28 06:25:01;;;;;;;;;;;;;;;16.37;52.78;100322.91;5056310;28;1087;-56
2023/06/28 06:27:26;;;;;;;;;;;;;;;16.28;53.45;100324.56;5043324;28;1222;-56
2023/06/28 06:29:52;;;;;;;;;;;;;;;16.56;53.04;100334.03;5056921;28;1059;-56
2023/06/28 06:32:17;;;;;;;;;;;;;;;17.51;51.49;100322.03;5056296;28;1897;-56
2023/06/28 06:34:43;;;;;;;;;;;;;;;16.99;52.69;100322.50;5050041;28;1079;-56
2023/06/28 06:37:12;;;;;;;;;;;;;;;16.74;53.14;100327.03;5049929;28;1059;-57
2023/06/28 06:39:37;;;;;;;;;;;;;;;16.68;53.29;100322.69;5035960;28;1101;-57
2023/06/28 06:42:03;;;;;;;;;;;;;;;16.60;53.98;100320.56;5051137;28;1123;-57
2023/06/28 06:44:28;;;;;;;;;;;;;;;16.66;53.78;100324.09;5056655;28;1218;-57
2023/06/28 06:46:54;;;;;;;;;;;;;;;16.60;54.02;100320.56;5056197;28;1155;-56
2023/06/28 06:49:20;;;;;;;;;;;;;;;17.64;52.57;100321.31;5055719;28;1164;-57
2023/06/28 06:51:46;;;;;;;;;;;;;;;17.37;53.16;100325.44;5054154;28;1913;-54
2023/06/28 06:54:11;;;;;;;;;;;;;;;17.22;53.49;100323.69;5066926;28;872;-56
2023/06/28 06:56:37;;;;;;;;;;;;;;;17.10;53.86;100324.03;5055588;28;909;-56
2023/06/28 06:59:02;;;;;;;;;;;;;;;17.01;54.51;100314.81;5055752;28;1175;-56
2023/06/28 07:01:29;;;;;;;;;;;;;;;16.89;54.73;100320.66;5055110;28;1120;-57
2023/06/28 07:03:55;;;;;;;;;;;;;;;16.79;54.76;100336.34;5041059;28;1143;-56
2023/06/28 07:06:20;;;;;;;;;;;;;;;16.86;54.32;100323.13;5034994;28;1144;-52
2023/06/28 07:08:46;;;;;;;;;;;;;;;16.80;54.51;100329.75;5026812;28;1155;-56
2023/06/28 07:11:12;;;;;;;;;;;;;;;16.79;54.57;100325.34;5056306;28;1902;-57
2023/06/28 07:13:38;;;;;;;;;;;;;;;16.71;54.53;100324.88;5055569;28;1024;-56
2023/06/28 07:16:03;;;;;;;;;;;;;;;16.76;54.31;100327.59;5055259;28;1416;-57
2023/06/28 07:18:29;;;;;;;;;;;;;;;16.73;54.30;100327.31;5050370;28;1016;-55
2023/06/28 07:20:54;;;;;;;;;;;;;;;16.74;54.19;100318.78;5055974;28;1067;-56
2023/06/28 07:23:20;;;;;;;;;;;;;;;16.72;54.46;100328.44;5055549;28;1329;-57
2023/06/28 07:25:46;;;;;;;;;;;;;;;16.67;54.39;100321.06;5051888;28;1011;-54
2023/06/28 07:28:11;;;;;;;;;;;;;;;16.84;55.10;100319.84;5045923;28;1068;-57
2023/06/28 07:30:53;;;;;;;;;;;;;;;16.81;54.94;100336.91;5054505;28;1364;-57
2023/06/28 07:33:20;;;;;;;;;;;;;;;16.79;55.07;100326.19;5054709;28;1148;-57
2023/06/28 07:35:45;;;;;;;;;;;;;;;16.71;55.07;100316.63;5054413;28;1166;-58
2023/06/28 07:38:11;;;;;;;;;;;;;;;16.75;54.59;100319.63;5058116;28;1206;-58
2023/06/28 07:40:36;;;;;;;;;;;;;;;16.76;54.52;100313.84;5058673;28;1226;-58
2023/06/28 07:43:02;;;;;;;;;;;;;;;16.73;54.51;100317.19;5059170;28;1167;-57
2023/06/28 07:45:28;;;;;;;;;;;;;;;16.71;54.46;100332.28;5059417;28;1230;-58
2023/06/28 07:47:53;;;;;;;;;;;;;;;16.71;54.56;100322.13;5059267;28;1286;-59
2023/06/28 07:50:20;;;;;;;;;;;;;;;16.69;54.58;100318.84;5041072;28;1227;-57
2023/06/28 07:52:46;;;;;;;;;;;;;;;16.69;54.58;100310.63;5044254;28;1914;-57
2023/06/28 07:55:11;;;;;;;;;;;;;;;16.74;54.49;100326.22;5048328;28;1173;-58
2023/06/28 07:57:37;;;;;;;;;;;;;;;16.70;54.50;100311.44;5046312;28;1079;-57
2023/06/28 08:00:04;;;;;;;;;;;;;;;16.71;54.21;100308.41;5050600;28;1059;-55
2023/06/28 08:02:32;;;;;;;;;;;;;;;16.67;54.25;100306.50;5049042;28;1144;-57
2023/06/28 08:04:58;;;;;;;;;;;;;;;16.67;54.41;100312.00;5058972;28;1052;-55
2023/06/28 08:07:24;;;;;;;;;;;;;;;16.67;54.23;100304.56;5059597;28;1152;-55
2023/06/28 08:09:49;;;;;;;;;;;;;;;16.67;54.12;100304.56;5058883;28;1147;-56
2023/06/28 08:12:15;;;;;;;;;;;;;;;16.68;54.27;100300.75;5058749;28;1901;-54
2023/06/28 08:14:40;;;;;;;;;;;;;;;16.64;54.28;100299.66;5059110;28;1031;-53
2023/06/28 08:17:06;;;;;;;;;;;;;;;16.67;54.18;100298.28;5058657;28;1076;-55
2023/06/28 08:19:31;;;;;;;;;;;;;;;16.66;54.30;100300.22;5058466;28;1028;-57
2023/06/28 08:21:58;;;;;;;;;;;;;;;16.65;54.21;100290.34;5058937;28;1043;-58
2023/06/28 08:24:23;;;;;;;;;;;;;;;16.66;54.22;100288.41;5059427;28;1234;-58
2023/06/28 08:26:49;;;;;;;;;;;;;;;16.69;54.25;100288.66;5048734;28;1044;-57
2023/06/28 08:29:16;;;;;;;;;;;;;;;16.67;54.47;100288.09;5059181;28;1130;-56
2023/06/28 08:31:42;;;;;;;;;;;;;;;16.71;53.96;100291.91;5058476;28;1983;-57
2023/06/28 08:34:07;;;;;;;;;;;;;;;16.72;54.20;100290.00;5058101;28;1149;-57
2023/06/28 08:36:33;;;;;;;;;;;;;;;16.69;54.50;100285.91;5052088;28;1089;-57
2023/06/28 08:38:58;;;;;;;;;;;;;;;16.69;54.45;100285.91;5049385;28;1021;-58
2023/06/28 08:41:24;;;;;;;;;;;;;;;16.67;54.59;100288.09;5044590;28;1016;-57
2023/06/28 08:43:53;;;;;;;;;;;;;;;16.64;54.48;100288.69;5058383;28;1110;-57
2023/06/28 08:46:18;;;;;;;;;;;;;;;16.65;54.20;100276.59;5058091;28;1008;-57
2023/06/28 08:48:45;;;;;;;;;;;;;;;16.67;54.27;100277.13;5058284;28;1480;-57
2023/06/28 08:51:11;;;;;;;;;;;;;;;16.64;54.42;100283.19;5035279;28;1906;-57
2023/06/28 08:53:37;;;;;;;;;;;;;;;16.65;54.40;100293.06;5021216;28;1215;-57
2023/06/28 08:56:03;;;;;;;;;;;;;;;16.68;54.26;100289.75;5039334;28;1052;-57
2023/06/28 08:58:28;;;;;;;;;;;;;;;16.65;54.18;100273.88;5057221;28;1000;-57
2023/06/28 09:00:54;;;;;;;;;;;;;;;16.67;54.14;100277.13;5039893;28;1176;-57
2023/06/28 09:03:20;;;;;;;;;;;;;;;16.70;54.33;100282.03;5040162;28;1107;-57
2023/06/28 09:05:45;;;;;;;;;;;;;;;16.73;54.08;100266.94;5044867;28;1135;-57
2023/06/28 09:08:11;;;;;;;;;;;;;;;16.67;54.32;100279.88;5040028;28;1160;-57
2023/06/28 09:10:36;;;;;;;;;;;;;;;16.69;54.17;100285.91;5040371;28;1120;-57
2023/06/28 09:13:02;;;;;;;;;;;;;;;16.64;54.26;100280.44;5040770;28;1914;-56
2023/06/28 09:15:27;;;;;;;;;;;;;;;16.64;54.46;100280.44;5048557;28;903;-57
2023/06/28 09:17:53;;;;;;;;;;;;;;;16.67;54.48;100281.81;5053619;28;1100;-57
2023/06/28 09:20:19;;;;;;;;;;;;;;;16.67;54.30;100276.31;5057173;28;1127;-57
2023/06/28 09:22:55;;;;;;;;;;;;;;;16.67;54.33;100277.13;5057390;28;1064;-55
2023/06/28 09:25:20;;;;;;;;;;;;;;;16.72;54.20;100266.13;5056450;28;1036;-56
2023/06/28 09:27:46;;;;;;;;;;;;;;;16.71;54.34;100260.91;5056659;28;1107;-55
2023/06/28 09:30:30;;;;;;;;;;;;;;;16.69;54.36;100269.44;5054702;28;1109;-57
2023/06/28 09:32:55;;;;;;;;;;;;;;;16.68;54.31;100262.31;5057337;28;1984;-53
2023/06/28 09:35:21;;;;;;;;;;;;;;;16.68;54.41;100248.56;5057560;28;1301;-56
2023/06/28 09:37:54;;;;;;;;;;;;;;;16.73;54.75;100259.53;5057142;28;1186;-56
2023/06/28 09:40:19;;;;;;;;;;;;;;;16.68;54.62;100250.50;5057068;28;1214;-57
2023/06/28 09:42:45;;;;;;;;;;;;;;;16.71;54.53;100248.00;5055880;28;1059;-55
2023/06/28 09:45:22;;;;;;;;;;;;;;;16.74;54.46;100250.16;5051486;28;1135;-57
2023/06/28 09:47:53;;;;;;;;;;;;;;;16.72;54.81;100248.84;5052125;28;1107;-53
2023/06/28 09:50:18;;;;;;;;;;;;;;;16.70;54.82;100249.09;5056985;28;1099;-56
2023/06/28 09:52:44;;;;;;;;;;;;;;;16.68;54.68;100245.84;5038968;28;1984;-58
2023/06/28 09:55:09;;;;;;;;;;;;;;;16.70;54.72;100240.84;5046799;28;1071;-54
2023/06/28 09:57:35;;;;;;;;;;;;;;;16.70;54.69;100242.78;5049042;28;1316;-56
2023/06/28 10:00:00;;;;;;;;;;;;;;;16.70;54.73;100253.78;5056227;28;1031;-57
2023/06/28 10:02:26;;;;;;;;;;;;;;;16.69;54.54;100244.72;5050676;28;1214;-56
2023/06/28 10:04:51;;;;;;;;;;;;;;;16.72;54.85;100241.41;5039241;28;896;-55
2023/06/28 10:07:17;;;;;;;;;;;;;;;16.70;54.83;100243.59;5057626;28;1068;-53
2023/06/28 10:09:42;;;;;;;;;;;;;;;16.68;54.89;100240.34;5038620;28;1024;-55
2023/06/28 10:12:13;;;;;;;;;;;;;;;16.67;54.56;100238.69;5057058;28;1958;-55
2023/06/28 10:14:39;;;;;;;;;;;;;;;16.70;54.61;100237.31;5056172;28;1331;-57
2023/06/28 10:17:05;;;;;;;;;;;;;;;16.66;54.73;100234.34;5055891;28;1359;-56
2023/06/28 10:19:30;;;;;;;;;;;;;;;16.71;54.73;100231.53;5038662;28;1115;-55
2023/06/28 10:21:56;;;;;;;;;;;;;;;16.64;54.71;100222.81;5023390;28;1139;-56
2023/06/28 10:24:21;;;;;;;;;;;;;;;16.69;54.66;100236.50;5028535;28;1136;-56
2023/06/28 10:26:47;;;;;;;;;;;;;;;16.61;54.74;100234.38;5038392;28;1151;-56
2023/06/28 10:29:12;;;;;;;;;;;;;;;16.66;54.88;100230.75;5030109;28;1463;-54
2023/06/28 10:31:37;;;;;;;;;;;;;;;16.63;54.69;100232.13;5034046;28;1898;-56
2023/06/28 10:34:03;;;;;;;;;;;;;;;16.63;54.90;100232.13;5056872;28;1126;-55
2023/06/28 10:36:29;;;;;;;;;;;;;;;16.66;55.09;100237.06;5056176;28;1167;-55
2023/06/28 10:38:54;;;;;;;;;;;;;;;16.66;54.76;100223.34;5038788;28;1128;-58
2023/06/28 10:41:21;;;;;;;;;;;;;;;16.66;54.80;100220.59;5043182;28;1063;-57
2023/06/28 10:43:46;;;;;;;;;;;;;;;16.71;54.66;100222.47;5039368;28;1196;-56
2023/06/28 10:46:22;;;;;;;;;;;;;;;16.71;54.77;100228.78;5037713;28;1029;-56
2023/06/28 10:48:47;;;;;;;;;;;;;;;16.63;54.80;100232.13;5056524;28;1098;-58
2023/06/28 10:51:13;;;;;;;;;;;;;;;16.66;54.71;100220.59;5052660;28;1875;-57
2023/06/28 10:53:41;;;;;;;;;;;;;;;16.60;55.04;100216.25;5046297;28;1029;-56
2023/06/28 10:56:07;;;;;;;;;;;;;;;16.70;54.75;100221.63;5037608;28;1149;-58
2023/06/28 10:58:35;;;;;;;;;;;;;;;16.72;54.84;100218.63;5056507;28;1148;-57
2023/06/28 11:01:01;;;;;;;;;;;;;;;16.81;55.41;100208.66;5054888;28;1441;-56
2023/06/28 11:03:36;;;;;;;;;;;;;;;16.76;55.54;100204.03;5055378;28;1222;-55
2023/06/28 11:06:01;;;;;;;;;;;;;;;16.75;55.75;100210.63;5055489;28;1133;-55
2023/06/28 11:08:40;;;;;;;;;;;;;;;16.78;55.31;100214.72;5055753;28;1203;-56
2023/06/28 11:11:06;;;;;;;;;;;;;;;16.79;55.29;100207.28;5054444;28;1897;-56
2023/06/28 11:13:33;;;;;;;;;;;;;;;16.72;55.33;100213.94;5052441;28;1327;-56
2023/06/28 11:16:11;;;;;;;;;;;;;;;16.72;55.35;100208.47;5032705;28;1397;-55
2023/06/28 11:18:36;;;;;;;;;;;;;;;16.77;55.10;100204.84;5050672;28;1239;-55
2023/06/28 11:21:02;;;;;;;;;;;;;;;16.75;55.09;100196.91;5046611;28;1235;-55
2023/06/28 11:23:35;;;;;;;;;;;;;;;16.74;55.19;100205.41;5052482;28;1215;-56
2023/06/28 11:26:02;;;;;;;;;;;;;;;16.75;55.27;100212.56;5053029;28;1393;-55
2023/06/28 11:28:28;;;;;;;;;;;;;;;16.72;55.20;100211.22;5049781;28;1508;-57
2023/06/28 11:30:54;;;;;;;;;;;;;;;16.76;54.99;100215.00;5047441;28;1969;-58
2023/06/28 11:33:20;;;;;;;;;;;;;;;16.77;54.95;100218.56;5055110;28;1132;-59
2023/06/28 11:35:46;;;;;;;;;;;;;;;16.74;55.12;100217.22;5055557;28;1545;-57
2023/06/28 11:38:12;;;;;;;;;;;;;;;16.74;55.03;100217.22;5055636;28;1118;-57
2023/06/28 11:40:37;;;;;;;;;;;;;;;16.77;54.93;100221.31;5033807;28;1412;-57
2023/06/28 11:43:03;;;;;;;;;;;;;;;16.71;55.28;100228.78;5051471;28;1033;-56
2023/06/28 11:45:31;;;;;;;;;;;;;;;16.71;55.21;100212.31;5054849;28;1167;-56
2023/06/28 11:47:57;;;;;;;;;;;;;;;16.75;55.05;100218.84;5049464;28;1368;-58
2023/06/28 11:50:22;;;;;;;;;;;;;;;16.69;55.02;100225.50;5029061;28;1085;-58
2023/06/28 11:52:48;;;;;;;;;;;;;;;16.72;54.83;100224.13;5030459;28;1975;-58
2023/06/28 11:55:14;;;;;;;;;;;;;;;16.70;55.02;100227.13;5048992;28;1227;-57
2023/06/28 11:57:44;;;;;;;;;;;;;;;16.73;54.78;100231.22;5050134;28;1168;-57
2023/06/28 12:00:10;;;;;;;;;;;;;;;16.68;55.02;100243.09;5034756;28;1270;-58
2023/06/28 12:02:49;;;;;;;;;;;;;;;16.73;54.92;100248.53;5049115;28;1144;-58
2023/06/28 12:05:18;;;;;;;;;;;;;;;16.70;54.73;100262.00;5046386;28;1187;-58
2023/06/28 12:07:47;;;;;;;;;;;;;;;16.65;55.00;100273.88;5055052;28;1295;-57
2023/06/28 12:10:13;;;;;;;;;;;;;;;16.58;54.87;100268.69;5046951;28;1214;-58
2023/06/28 12:12:38;;;;;;;;;;;;;;;16.66;54.63;100277.41;5051912;28;1967;-58
2023/06/28 12:15:04;;;;;;;;;;;;;;;16.60;54.85;100285.69;5055266;28;1195;-58
2023/06/28 12:17:40;;;;;;;;;;;;;;;16.58;54.72;100279.66;5054869;28;854;-55
2023/06/28 12:20:06;;;;;;;;;;;;;;;16.55;54.98;100280.25;5054548;28;929;-55
2023/06/28 12:22:38;;;;;;;;;;;;;;;16.54;55.02;100299.75;5055675;28;1055;-55
2023/06/28 12:25:04;;;;;;;;;;;;;;;16.55;54.79;100304.09;5058804;28;1055;-56
2023/06/28 12:27:30;;;;;;;;;;;;;;;16.54;54.83;100299.75;5055182;28;1067;-56
2023/06/28 12:29:55;;;;;;;;;;;;;;;16.46;54.91;100305.84;5057990;28;1175;-54
2023/06/28 12:32:22;;;;;;;;;;;;;;;16.45;54.70;100302.25;5039148;28;1914;-55
2023/06/28 12:34:48;;;;;;;;;;;;;;;16.47;54.85;100293.75;5058332;28;1000;-56
2023/06/28 12:37:14;;;;;;;;;;;;;;;16.47;54.76;100299.25;5058092;28;1179;-55
2023/06/28 12:39:40;;;;;;;;;;;;;;;16.48;54.71;100303.63;5057706;28;1008;-52
2023/06/28 12:42:18;;;;;;;;;;;;;;;16.46;54.58;100297.59;5044117;28;1051;-54